sensor_id;sensor_type;location;lat;lon;timestamp;pressure;altitude;pressure_sealevel;temperature;humidity
5574;BME280;2563;52.242;7.956;2022-08-19T00:00:05;100383.06;;;16.94;100.00
5574;BME280;2563;52.242;7.956;2022-08-19T00:02:31;100389.22;;;16.93;100.00
5574;BME280;2563;52.242;7.956;2022-08-19T00:04:56;100388.94;;;16.82;100.00
5574;BME280;2563;52.242;7.956;2022-08-19T00:07:22;100389.00;;;16.80;100.00
5574;BME280;2563;52.242;7.956;2022-08-19T00:09:47;100393.56;;;16.75;100.00
5574;BME280;2563;52.242;7.956;2022-08-19T00:12:13;100390.97;;;16.75;100.00
5574;BME280;2563;52.242;7.956;2022-08-19T00:14:38;100398.19;;;16.70;100.00
5574;BME280;2563;52.242;7.956;2022-08-19T00:17:05;100402.78;;;16.65;100.00
5574;BME280;2563;52.242;7.956;2022-08-19T00:19:32;100407.28;;;16.62;100.00
5574;BME280;2563;52.242;7.956;2022-08-19T00:21:58;100402.19;;;16.60;100.00
5574;BME280;2563;52.242;7.956;2022-08-19T00:24:23;100399.75;;;16.57;100.00
5574;BME280;2563;52.242;7.956;2022-08-19T00:26:49;100400.47;;;16.59;100.00
5574;BME280;2563;52.242;7.956;2022-08-19T00:29:17;100405.06;;;16.54;100.00
5574;BME280;2563;52.242;7.956;2022-08-19T00:31:44;100401.81;;;16.50;100.00
5574;BME280;2563;52.242;7.956;2022-08-19T00:34:11;100411.38;;;16.50;100.00
5574;BME280;2563;52.242;7.956;2022-08-19T00:36:37;100406.31;;;16.47;100.00
5574;BME280;2563;52.242;7.956;2022-08-19T00:39:03;100400.44;;;16.43;100.00
5574;BME280;2563;52.242;7.956;2022-08-19T00:41:28;100403.28;;;16.38;100.00
5574;BME280;2563;52.242;7.956;2022-08-19T00:44:07;100415.50;;;16.36;100.00
5574;BME280;2563;52.242;7.956;2022-08-19T00:46:34;100401.75;;;16.34;100.00
5574;BME280;2563;52.242;7.956;2022-08-19T00:49:06;100403.44;;;16.35;100.00
5574;BME280;2563;52.242;7.956;2022-08-19T00:51:35;100396.91;;;16.44;100.00
5574;BME280;2563;52.242;7.956;2022-08-19T00:54:01;100401.13;;;16.47;100.00
5574;BME280;2563;52.242;7.956;2022-08-19T00:56:27;100404.28;;;16.36;100.00
5574;BME280;2563;52.242;7.956;2022-08-19T00:58:55;100397.94;;;16.24;100.00
5574;BME280;2563;52.242;7.956;2022-08-19T01:01:21;100396.50;;;16.19;100.00
5574;BME280;2563;52.242;7.956;2022-08-19T01:03:46;100392.28;;;16.16;100.00
5574;BME280;2563;52.242;7.956;2022-08-19T01:06:12;100385.56;;;16.12;100.00
5574;BME280;2563;52.242;7.956;2022-08-19T01:08:37;100385.63;;;16.10;100.00
5574;BME280;2563;52.242;7.956;2022-08-19T01:11:03;100383.03;;;16.10;100.00
5574;BME280;2563;52.242;7.956;2022-08-19T01:13:32;100381.88;;;16.16;100.00
5574;BME280;2563;52.242;7.956;2022-08-19T01:16:02;100372.97;;;16.04;100.00
5574;BME280;2563;52.242;7.956;2022-08-19T01:18:29;100367.78;;;16.04;100.00
5574;BME280;2563;52.242;7.956;2022-08-19T01:20:58;100374.94;;;15.99;100.00
5574;BME280;2563;52.242;7.956;2022-08-19T01:23:26;100375.41;;;15.90;100.00
5574;BME280;2563;52.242;7.956;2022-08-19T01:26:12;100383.03;;;15.93;100.00
5574;BME280;2563;52.242;7.956;2022-08-19T01:28:39;100378.91;;;15.89;100.00
5574;BME280;2563;52.242;7.956;2022-08-19T01:31:09;100376.53;;;15.84;100.00
5574;BME280;2563;52.242;7.956;2022-08-19T01:33:37;100379.22;;;15.83;100.00
5574;BME280;2563;52.242;7.956;2022-08-19T01:38:55;100380.34;;;15.77;100.00
5574;BME280;2563;52.242;7.956;2022-08-19T01:41:20;100377.97;;;15.72;100.00
5574;BME280;2563;52.242;7.956;2022-08-19T01:43:49;100384.97;;;15.70;100.00
5574;BME280;2563;52.242;7.956;2022-08-19T01:46:15;100379.09;;;15.67;100.00
5574;BME280;2563;52.242;7.956;2022-08-19T01:48:41;100391.50;;;15.60;100.00
5574;BME280;2563;52.242;7.956;2022-08-19T01:51:08;100387.91;;;15.63;100.00
5574;BME280;2563;52.242;7.956;2022-08-19T01:53:34;100383.50;;;15.65;100.00
5574;BME280;2563;52.242;7.956;2022-08-19T01:56:00;100382.72;;;15.63;100.00
5574;BME280;2563;52.242;7.956;2022-08-19T01:58:31;100380.44;;;15.57;100.00
5574;BME280;2563;52.242;7.956;2022-08-19T02:00:58;100372.66;;;15.57;100.00
5574;BME280;2563;52.242;7.956;2022-08-19T02:03:24;100376.47;;;15.49;100.00
5574;BME280;2563;52.242;7.956;2022-08-19T02:06:00;100375.59;;;15.49;100.00
5574;BME280;2563;52.242;7.956;2022-08-19T02:08:28;100375.91;;;15.43;100.00
5574;BME280;2563;52.242;7.956;2022-08-19T02:10:54;100379.19;;;15.46;100.00
5574;BME280;2563;52.242;7.956;2022-08-19T02:13:20;100376.53;;;15.48;100.00
5574;BME280;2563;52.242;7.956;2022-08-19T02:15:45;100374.16;;;15.43;100.00
5574;BME280;2563;52.242;7.956;2022-08-19T02:18:11;100379.19;;;15.46;100.00
5574;BME280;2563;52.242;7.956;2022-08-19T02:20:37;100373.38;;;15.41;100.00
5574;BME280;2563;52.242;7.956;2022-08-19T02:23:04;100369.16;;;15.39;100.00
5574;BME280;2563;52.242;7.956;2022-08-19T02:25:29;100365.91;;;15.35;100.00
5574;BME280;2563;52.242;7.956;2022-08-19T02:27:54;100362.22;;;15.39;100.00
5574;BME280;2563;52.242;7.956;2022-08-19T02:30:20;100357.19;;;15.36;100.00
5574;BME280;2563;52.242;7.956;2022-08-19T02:32:46;100356.31;;;15.37;100.00
5574;BME280;2563;52.242;7.956;2022-08-19T02:35:13;100361.47;;;15.37;100.00
5574;BME280;2563;52.242;7.956;2022-08-19T02:37:39;100356.72;;;15.28;100.00
5574;BME280;2563;52.242;7.956;2022-08-19T02:40:24;100356.09;;;15.23;100.00
5574;BME280;2563;52.242;7.956;2022-08-19T02:42:49;100358.97;;;15.17;100.00
5574;BME280;2563;52.242;7.956;2022-08-19T02:45:14;100358.97;;;15.17;100.00
5574;BME280;2563;52.242;7.956;2022-08-19T02:47:40;100354.81;;;15.13;100.00
5574;BME280;2563;52.242;7.956;2022-08-19T02:50:06;100353.94;;;15.14;100.00
5574;BME280;2563;52.242;7.956;2022-08-19T02:52:32;100362.50;;;15.16;100.00
5574;BME280;2563;52.242;7.956;2022-08-19T02:54:58;100364.16;;;15.17;100.00
5574;BME280;2563;52.242;7.956;2022-08-19T02:57:24;100367.66;;;15.16;100.00
5574;BME280;2563;52.242;7.956;2022-08-19T02:59:50;100372.84;;;15.16;100.00
5574;BME280;2563;52.242;7.956;2022-08-19T03:02:15;100365.00;;;15.17;100.00
5574;BME280;2563;52.242;7.956;2022-08-19T03:04:41;100359.03;;;15.15;100.00
5574;BME280;2563;52.242;7.956;2022-08-19T03:07:08;100358.25;;;15.13;100.00
5574;BME280;2563;52.242;7.956;2022-08-19T03:09:36;100356.44;;;15.15;100.00
5574;BME280;2563;52.242;7.956;2022-08-19T03:12:03;100353.78;;;15.17;100.00
5574;BME280;2563;52.242;7.956;2022-08-19T03:14:30;100353.63;;;15.20;100.00
5574;BME280;2563;52.242;7.956;2022-08-19T03:16:56;100346.69;;;15.20;100.00
5574;BME280;2563;52.242;7.956;2022-08-19T03:19:21;100344.97;;;15.21;100.00
5574;BME280;2563;52.242;7.956;2022-08-19T03:21:46;100345.28;;;15.13;100.00
5574;BME280;2563;52.242;7.956;2022-08-19T03:24:13;100352.53;;;15.06;100.00
5574;BME280;2563;52.242;7.956;2022-08-19T03:26:41;100349.16;;;15.04;100.00
5574;BME280;2563;52.242;7.956;2022-08-19T03:29:08;100349.38;;;15.00;100.00
5574;BME280;2563;52.242;7.956;2022-08-19T03:31:35;100364.88;;;15.01;100.00
5574;BME280;2563;52.242;7.956;2022-08-19T03:34:00;100360.53;;;15.02;100.00
5574;BME280;2563;52.242;7.956;2022-08-19T03:36:26;100362.50;;;14.97;100.00
5574;BME280;2563;52.242;7.956;2022-08-19T03:38:55;100370.16;;;14.98;100.00
5574;BME280;2563;52.242;7.956;2022-08-19T03:41:31;100375.34;;;14.98;100.00
5574;BME280;2563;52.242;7.956;2022-08-19T03:43:58;100381.53;;;14.96;100.00
5574;BME280;2563;52.242;7.956;2022-08-19T03:46:29;100383.44;;;14.92;100.00
5574;BME280;2563;52.242;7.956;2022-08-19T03:48:57;100389.38;;;14.94;100.00
5574;BME280;2563;52.242;7.956;2022-08-19T03:53:51;100404.22;;;14.91;100.00
5574;BME280;2563;52.242;7.956;2022-08-19T03:56:17;100397.22;;;14.93;100.00
5574;BME280;2563;52.242;7.956;2022-08-19T03:58:43;100397.91;;;14.96;100.00
5574;BME280;2563;52.242;7.956;2022-08-19T04:01:16;100387.53;;;14.96;100.00
5574;BME280;2563;52.242;7.956;2022-08-19T04:03:42;100389.25;;;14.97;100.00
5574;BME280;2563;52.242;7.956;2022-08-19T04:06:20;100385.16;;;14.92;100.00
5574;BME280;2563;52.242;7.956;2022-08-19T04:08:48;100389.25;;;14.97;100.00
5574;BME280;2563;52.242;7.956;2022-08-19T04:11:18;100388.31;;;14.98;100.00
5574;BME280;2563;52.242;7.956;2022-08-19T04:13:46;100394.28;;;15.00;100.00
5574;BME280;2563;52.242;7.956;2022-08-19T04:16:11;100392.59;;;14.99;100.00
5574;BME280;2563;52.242;7.956;2022-08-19T04:18:37;100387.63;;;14.95;100.00
5574;BME280;2563;52.242;7.956;2022-08-19T04:21:04;100387.69;;;14.93;100.00
5574;BME280;2563;52.242;7.956;2022-08-19T04:23:30;100385.38;;;14.87;100.00
5574;BME280;2563;52.242;7.956;2022-08-19T04:25:56;100379.69;;;14.79;100.00
5574;BME280;2563;52.242;7.956;2022-08-19T04:28:23;100385.66;;;14.81;100.00
5574;BME280;2563;52.242;7.956;2022-08-19T04:30:50;100387.31;;;14.82;100.00
5574;BME280;2563;52.242;7.956;2022-08-19T04:33:24;100392.38;;;14.85;100.00
5574;BME280;2563;52.242;7.956;2022-08-19T04:35:51;100393.28;;;14.84;100.00
5574;BME280;2563;52.242;7.956;2022-08-19T04:38:19;100398.34;;;14.87;100.00
5574;BME280;2563;52.242;7.956;2022-08-19T04:40:47;100399.88;;;14.91;100.00
5574;BME280;2563;52.242;7.956;2022-08-19T04:43:33;100403.59;;;14.85;100.00
5574;BME280;2563;52.242;7.956;2022-08-19T04:46:13;100410.44;;;14.86;100.00
5574;BME280;2563;52.242;7.956;2022-08-19T04:48:39;100412.81;;;14.91;100.00
5574;BME280;2563;52.242;7.956;2022-08-19T04:51:10;100417.94;;;14.93;100.00
5574;BME280;2563;52.242;7.956;2022-08-19T04:53:37;100419.50;;;14.97;100.00
5574;BME280;2563;52.242;7.956;2022-08-19T04:56:10;100415.94;;;14.99;100.00
5574;BME280;2563;52.242;7.956;2022-08-19T04:58:36;100420.97;;;15.02;100.00
5574;BME280;2563;52.242;7.956;2022-08-19T05:01:04;100422.59;;;15.05;100.00
5574;BME280;2563;52.242;7.956;2022-08-19T05:03:29;100417.34;;;15.06;100.00
5574;BME280;2563;52.242;7.956;2022-08-19T05:05:59;100415.44;;;15.10;100.00
5574;BME280;2563;52.242;7.956;2022-08-19T05:08:28;100417.78;;;15.16;100.00
5574;BME280;2563;52.242;7.956;2022-08-19T05:10:55;100410.69;;;15.20;100.00
5574;BME280;2563;52.242;7.956;2022-08-19T05:13:22;100414.66;;;15.27;100.00
5574;BME280;2563;52.242;7.956;2022-08-19T05:15:56;100415.59;;;15.26;100.00
5574;BME280;2563;52.242;7.956;2022-08-19T05:18:22;100410.25;;;15.29;100.00
5574;BME280;2563;52.242;7.956;2022-08-19T05:21:16;100404.91;;;15.32;100.00
5574;BME280;2563;52.242;7.956;2022-08-19T05:24:01;100406.63;;;15.33;100.00
5574;BME280;2563;52.242;7.956;2022-08-19T05:26:27;100406.47;;;15.36;100.00
5574;BME280;2563;52.242;7.956;2022-08-19T05:28:53;100407.31;;;15.37;100.00
5574;BME280;2563;52.242;7.956;2022-08-19T05:31:19;100403.88;;;15.36;100.00
5574;BME280;2563;52.242;7.956;2022-08-19T05:33:45;100408.16;;;15.37;100.00
5574;BME280;2563;52.242;7.956;2022-08-19T05:36:10;100414.88;;;15.41;100.00
5574;BME280;2563;52.242;7.956;2022-08-19T05:38:36;100411.91;;;15.49;100.00
5574;BME280;2563;52.242;7.956;2022-08-19T05:41:12;100408.00;;;15.59;100.00
5574;BME280;2563;52.242;7.956;2022-08-19T05:43:38;100407.44;;;15.71;100.00
5574;BME280;2563;52.242;7.956;2022-08-19T05:46:05;100397.47;;;15.81;100.00
5574;BME280;2563;52.242;7.956;2022-08-19T05:48:32;100403.88;;;15.91;100.00
5574;BME280;2563;52.242;7.956;2022-08-19T05:50:58;100399.84;;;16.03;100.00
5574;BME280;2563;52.242;7.956;2022-08-19T05:53:28;100393.97;;;16.17;100.00
5574;BME280;2563;52.242;7.956;2022-08-19T05:55:53;100402.19;;;16.25;100.00
5574;BME280;2563;52.242;7.956;2022-08-19T05:58:18;100398.25;;;16.35;100.00
5574;BME280;2563;52.242;7.956;2022-08-19T06:00:44;100393.50;;;16.44;100.00
5574;BME280;2563;52.242;7.956;2022-08-19T06:03:10;100388.66;;;16.53;100.00
5574;BME280;2563;52.242;7.956;2022-08-19T06:05:38;100390.09;;;16.59;100.00
5574;BME280;2563;52.242;7.956;2022-08-19T06:08:03;100395.66;;;16.69;100.00
5574;BME280;2563;52.242;7.956;2022-08-19T06:10:30;100393.56;;;16.75;100.00
5574;BME280;2563;52.242;7.956;2022-08-19T06:12:56;100390.47;;;16.86;100.00
5574;BME280;2563;52.242;7.956;2022-08-19T06:15:21;100390.81;;;16.96;100.00
5574;BME280;2563;52.242;7.956;2022-08-19T06:17:51;100387.53;;;17.08;100.00
5574;BME280;2563;52.242;7.956;2022-08-19T06:20:16;100380.00;;;17.19;100.00
5574;BME280;2563;52.242;7.956;2022-08-19T06:22:45;100388.03;;;17.31;100.00
5574;BME280;2563;52.242;7.956;2022-08-19T06:25:13;100379.66;;;17.41;100.00
5574;BME280;2563;52.242;7.956;2022-08-19T06:27:40;100380.16;;;17.48;100.00
5574;BME280;2563;52.242;7.956;2022-08-19T06:30:06;100373.59;;;17.57;100.00
5574;BME280;2563;52.242;7.956;2022-08-19T06:32:32;100363.66;;;17.63;100.00
5574;BME280;2563;52.242;7.956;2022-08-19T06:34:57;100358.84;;;17.72;100.00
5574;BME280;2563;52.242;7.956;2022-08-19T06:37:23;100356.63;;;17.81;100.00
5574;BME280;2563;52.242;7.956;2022-08-19T06:39:48;100351.88;;;17.88;100.00
5574;BME280;2563;52.242;7.956;2022-08-19T06:42:14;100354.53;;;18.02;100.00
5574;BME280;2563;52.242;7.956;2022-08-19T06:44:45;100352.13;;;18.14;100.00
5574;BME280;2563;52.242;7.956;2022-08-19T06:47:13;100346.31;;;18.24;100.00
5574;BME280;2563;52.242;7.956;2022-08-19T06:49:40;100347.50;;;18.33;100.00
5574;BME280;2563;52.242;7.956;2022-08-19T06:52:07;100342.69;;;18.41;100.00
5574;BME280;2563;52.242;7.956;2022-08-19T06:54:32;100338.59;;;18.52;100.00
5574;BME280;2563;52.242;7.956;2022-08-19T06:56:59;100340.81;;;18.58;100.00
5574;BME280;2563;52.242;7.956;2022-08-19T06:59:29;100347.97;;;18.68;100.00
5574;BME280;2563;52.242;7.956;2022-08-19T07:01:59;100351.88;;;18.76;100.00
5574;BME280;2563;52.242;7.956;2022-08-19T07:04:28;100351.06;;;18.89;100.00
5574;BME280;2563;52.242;7.956;2022-08-19T07:06:59;100347.69;;;19.02;100.00
5574;BME280;2563;52.242;7.956;2022-08-19T07:09:25;100348.44;;;19.04;100.00
5574;BME280;2563;52.242;7.956;2022-08-19T07:11:52;100347.75;;;19.15;100.00
5574;BME280;2563;52.242;7.956;2022-08-19T07:14:20;100347.09;;;19.25;100.00
5574;BME280;2563;52.242;7.956;2022-08-19T07:16:48;100354.28;;;19.34;100.00
5574;BME280;2563;52.242;7.956;2022-08-19T07:19:13;100350.47;;;19.40;100.00
5574;BME280;2563;52.242;7.956;2022-08-19T07:21:40;100355.00;;;19.51;100.00
5574;BME280;2563;52.242;7.956;2022-08-19T07:24:06;100360.38;;;19.62;100.00
5574;BME280;2563;52.242;7.956;2022-08-19T07:26:38;100350.84;;;19.75;100.00
5574;BME280;2563;52.242;7.956;2022-08-19T07:29:04;100360.78;;;19.83;100.00
5574;BME280;2563;52.242;7.956;2022-08-19T07:31:30;100364.34;;;19.95;100.00
5574;BME280;2563;52.242;7.956;2022-08-19T07:33:57;100367.19;;;20.05;100.00
5574;BME280;2563;52.242;7.956;2022-08-19T07:36:27;100375.84;;;20.05;100.00
5574;BME280;2563;52.242;7.956;2022-08-19T07:38:56;100367.50;;;20.13;100.00
5574;BME280;2563;52.242;7.956;2022-08-19T07:41:24;100375.03;;;20.17;100.00
5574;BME280;2563;52.242;7.956;2022-08-19T07:43:51;100370.75;;;20.29;100.00
5574;BME280;2563;52.242;7.956;2022-08-19T07:46:18;100380.59;;;20.38;100.00
5574;BME280;2563;52.242;7.956;2022-08-19T07:48:46;100376.09;;;20.40;100.00
5574;BME280;2563;52.242;7.956;2022-08-19T07:51:14;100387.38;;;20.54;100.00
5574;BME280;2563;52.242;7.956;2022-08-19T07:53:40;100388.78;;;20.59;100.00
5574;BME280;2563;52.242;7.956;2022-08-19T07:56:06;100400.47;;;20.79;100.00
5574;BME280;2563;52.242;7.956;2022-08-19T07:58:34;100399.94;;;20.87;100.00
5574;BME280;2563;52.242;7.956;2022-08-19T08:01:00;100416.16;;;20.79;100.00
5574;BME280;2563;52.242;7.956;2022-08-19T08:03:27;100417.84;;;20.93;100.00
5574;BME280;2563;52.242;7.956;2022-08-19T08:06:13;100422.94;;;21.08;100.00
5574;BME280;2563;52.242;7.956;2022-08-19T08:08:58;100430.03;;;21.18;100.00
5574;BME280;2563;52.242;7.956;2022-08-19T08:11:40;100430.50;;;21.36;100.00
5574;BME280;2563;52.242;7.956;2022-08-19T08:14:07;100434.91;;;21.49;100.00
5574;BME280;2563;52.242;7.956;2022-08-19T08:16:37;100430.44;;;21.62;100.00
5574;BME280;2563;52.242;7.956;2022-08-19T08:19:04;100440.88;;;21.75;100.00
5574;BME280;2563;52.242;7.956;2022-08-19T08:21:31;100446.66;;;21.91;100.00
5574;BME280;2563;52.242;7.956;2022-08-19T08:23:56;100455.81;;;21.85;100.00
5574;BME280;2563;52.242;7.956;2022-08-19T08:26:22;100461.69;;;22.00;100.00
5574;BME280;2563;52.242;7.956;2022-08-19T08:28:48;100470.28;;;22.02;100.00
5574;BME280;2563;52.242;7.956;2022-08-19T08:31:13;100479.84;;;22.27;100.00
5574;BME280;2563;52.242;7.956;2022-08-19T08:33:39;100488.97;;;22.46;100.00
5574;BME280;2563;52.242;7.956;2022-08-19T08:36:07;100487.81;;;22.84;100.00
5574;BME280;2563;52.242;7.956;2022-08-19T08:38:33;100510.06;;;23.02;100.00
5574;BME280;2563;52.242;7.956;2022-08-19T08:43:51;100526.28;;;23.52;100.00
5574;BME280;2563;52.242;7.956;2022-08-19T08:46:23;100531.50;;;23.86;100.00
5574;BME280;2563;52.242;7.956;2022-08-19T08:48:53;100542.53;;;23.80;100.00
5574;BME280;2563;52.242;7.956;2022-08-19T08:51:32;100559.50;;;23.31;100.00
5574;BME280;2563;52.242;7.956;2022-08-19T08:53:59;100549.06;;;23.63;100.00
5574;BME280;2563;52.242;7.956;2022-08-19T08:56:24;100542.50;;;23.91;100.00
5574;BME280;2563;52.242;7.956;2022-08-19T08:59:05;100549.22;;;23.73;100.00
5574;BME280;2563;52.242;7.956;2022-08-19T09:01:34;100554.22;;;23.65;100.00
5574;BME280;2563;52.242;7.956;2022-08-19T09:03:59;100568.81;;;23.35;100.00
5574;BME280;2563;52.242;7.956;2022-08-19T09:06:44;100569.16;;;23.19;100.00
5574;BME280;2563;52.242;7.956;2022-08-19T09:09:20;100572.06;;;23.27;100.00
5574;BME280;2563;52.242;7.956;2022-08-19T09:14:59;100562.97;;;25.77;100.00
5574;BME280;2563;52.242;7.956;2022-08-19T09:17:28;100574.44;;;25.76;100.00
5574;BME280;2563;52.242;7.956;2022-08-19T09:20:24;100582.91;;;26.10;100.00
5574;BME280;2563;52.242;7.956;2022-08-19T09:22:50;100577.34;;;26.33;100.00
5574;BME280;2563;52.242;7.956;2022-08-19T09:25:19;100582.41;;;27.12;100.00
5574;BME280;2563;52.242;7.956;2022-08-19T09:27:47;100584.00;;;26.85;100.00
5574;BME280;2563;52.242;7.956;2022-08-19T09:30:19;100595.97;;;26.80;100.00
5574;BME280;2563;52.242;7.956;2022-08-19T09:32:47;100591.53;;;26.80;100.00
5574;BME280;2563;52.242;7.956;2022-08-19T09:35:14;100608.91;;;25.43;100.00
5574;BME280;2563;52.242;7.956;2022-08-19T09:37:41;100605.59;;;24.78;100.00
5574;BME280;2563;52.242;7.956;2022-08-19T09:40:08;100607.16;;;24.37;100.00
5574;BME280;2563;52.242;7.956;2022-08-19T09:42:33;100599.72;;;24.42;100.00
5574;BME280;2563;52.242;7.956;2022-08-19T09:44:59;100589.72;;;24.69;100.00
5574;BME280;2563;52.242;7.956;2022-08-19T09:47:25;100589.84;;;26.40;100.00
5574;BME280;2563;52.242;7.956;2022-08-19T09:49:50;100586.00;;;27.58;100.00
5574;BME280;2563;52.242;7.956;2022-08-19T09:52:15;100595.44;;;28.34;100.00
5574;BME280;2563;52.242;7.956;2022-08-19T09:54:41;100596.44;;;27.97;100.00
5574;BME280;2563;52.242;7.956;2022-08-19T09:57:07;100600.81;;;28.42;100.00
5574;BME280;2563;52.242;7.956;2022-08-19T09:59:33;100610.06;;;28.38;100.00
5574;BME280;2563;52.242;7.956;2022-08-19T10:01:58;100614.34;;;27.75;100.00
5574;BME280;2563;52.242;7.956;2022-08-19T10:04:24;100615.31;;;28.02;100.00
5574;BME280;2563;52.242;7.956;2022-08-19T10:07:10;100613.84;;;27.62;100.00
5574;BME280;2563;52.242;7.956;2022-08-19T10:09:35;100614.16;;;26.92;100.00
5574;BME280;2563;52.242;7.956;2022-08-19T10:12:03;100613.78;;;27.72;100.00
5574;BME280;2563;52.242;7.956;2022-08-19T10:14:29;100609.94;;;28.57;100.00
5574;BME280;2563;52.242;7.956;2022-08-19T10:16:55;100611.47;;;28.14;100.00
5574;BME280;2563;52.242;7.956;2022-08-19T10:19:21;100618.22;;;26.87;100.00
5574;BME280;2563;52.242;7.956;2022-08-19T10:21:47;100614.06;;;26.84;100.00
5574;BME280;2563;52.242;7.956;2022-08-19T10:24:12;100614.88;;;26.46;100.00
5574;BME280;2563;52.242;7.956;2022-08-19T10:26:39;100612.94;;;26.58;100.00
5574;BME280;2563;52.242;7.956;2022-08-19T10:29:07;100612.47;;;26.23;100.00
5574;BME280;2563;52.242;7.956;2022-08-19T10:31:33;100615.69;;;26.37;100.00
5574;BME280;2563;52.242;7.956;2022-08-19T10:34:00;100603.16;;;27.82;100.00
5574;BME280;2563;52.242;7.956;2022-08-19T10:36:29;100606.97;;;29.31;100.00
5574;BME280;2563;52.242;7.956;2022-08-19T10:38:57;100605.38;;;29.72;100.00
5574;BME280;2563;52.242;7.956;2022-08-19T10:41:26;100603.53;;;29.73;100.00
5574;BME280;2563;52.242;7.956;2022-08-19T10:43:54;100608.38;;;28.73;100.00
5574;BME280;2563;52.242;7.956;2022-08-19T10:46:22;100611.09;;;27.54;100.00
5574;BME280;2563;52.242;7.956;2022-08-19T10:48:48;100611.75;;;27.66;100.00
5574;BME280;2563;52.242;7.956;2022-08-19T10:51:16;100611.28;;;28.61;100.00
5574;BME280;2563;52.242;7.956;2022-08-19T10:54:00;100605.84;;;27.72;100.00
5574;BME280;2563;52.242;7.956;2022-08-19T10:56:27;100606.38;;;27.48;100.00
5574;BME280;2563;52.242;7.956;2022-08-19T10:59:11;100606.56;;;28.02;100.00
5574;BME280;2563;52.242;7.956;2022-08-19T11:01:39;100601.59;;;28.16;100.00
5574;BME280;2563;52.242;7.956;2022-08-19T11:04:06;100604.56;;;27.86;100.00
5574;BME280;2563;52.242;7.956;2022-08-19T11:06:35;100600.53;;;28.45;100.00
5574;BME280;2563;52.242;7.956;2022-08-19T11:09:02;100600.63;;;29.23;100.00
5574;BME280;2563;52.242;7.956;2022-08-19T11:11:28;100605.16;;;29.31;100.00
5574;BME280;2563;52.242;7.956;2022-08-19T11:13:53;100596.44;;;29.81;100.00
5574;BME280;2563;52.242;7.956;2022-08-19T11:16:21;100595.22;;;30.35;100.00
5574;BME280;2563;52.242;7.956;2022-08-19T11:18:49;100597.50;;;29.62;100.00
5574;BME280;2563;52.242;7.956;2022-08-19T11:21:27;100595.31;;;28.71;100.00
5574;BME280;2563;52.242;7.956;2022-08-19T11:23:56;100594.53;;;28.79;100.00
5574;BME280;2563;52.242;7.956;2022-08-19T11:26:22;100590.00;;;27.99;100.00
5574;BME280;2563;52.242;7.956;2022-08-19T11:28:48;100587.66;;;28.94;100.00
5574;BME280;2563;52.242;7.956;2022-08-19T11:31:18;100583.22;;;29.63;100.00
5574;BME280;2563;52.242;7.956;2022-08-19T11:33:44;100572.94;;;30.19;100.00
5574;BME280;2563;52.242;7.956;2022-08-19T11:36:11;100576.41;;;30.03;100.00
5574;BME280;2563;52.242;7.956;2022-08-19T11:38:36;100569.97;;;30.55;100.00
5574;BME280;2563;52.242;7.956;2022-08-19T11:41:06;100562.91;;;31.20;100.00
5574;BME280;2563;52.242;7.956;2022-08-19T11:43:33;100564.00;;;30.94;100.00
5574;BME280;2563;52.242;7.956;2022-08-19T11:45:58;100564.66;;;31.44;100.00
5574;BME280;2563;52.242;7.956;2022-08-19T11:48:24;100563.97;;;29.53;100.00
5574;BME280;2563;52.242;7.956;2022-08-19T11:50:52;100572.69;;;28.41;100.00
5574;BME280;2563;52.242;7.956;2022-08-19T11:53:19;100567.88;;;28.54;100.00
5574;BME280;2563;52.242;7.956;2022-08-19T11:55:46;100562.16;;;27.95;100.00
5574;BME280;2563;52.242;7.956;2022-08-19T11:58:12;100561.34;;;27.95;100.00
5574;BME280;2563;52.242;7.956;2022-08-19T12:00:39;100558.28;;;29.40;100.00
5574;BME280;2563;52.242;7.956;2022-08-19T12:03:05;100557.91;;;29.26;100.00
5574;BME280;2563;52.242;7.956;2022-08-19T12:05:31;100559.59;;;28.57;100.00
5574;BME280;2563;52.242;7.956;2022-08-19T12:07:57;100557.72;;;29.02;100.00
5574;BME280;2563;52.242;7.956;2022-08-19T12:10:22;100554.22;;;30.45;100.00
5574;BME280;2563;52.242;7.956;2022-08-19T12:12:48;100548.56;;;31.37;100.00
5574;BME280;2563;52.242;7.956;2022-08-19T12:15:14;100540.34;;;31.15;100.00
5574;BME280;2563;52.242;7.956;2022-08-19T12:17:40;100548.88;;;31.34;100.00
5574;BME280;2563;52.242;7.956;2022-08-19T12:20:09;100536.44;;;31.26;100.00
5574;BME280;2563;52.242;7.956;2022-08-19T12:22:36;100540.44;;;31.22;100.00
5574;BME280;2563;52.242;7.956;2022-08-19T12:25:02;100537.94;;;31.99;100.00
5574;BME280;2563;52.242;7.956;2022-08-19T12:27:28;100540.31;;;32.32;100.00
5574;BME280;2563;52.242;7.956;2022-08-19T12:29:54;100538.97;;;32.36;100.00
5574;BME280;2563;52.242;7.956;2022-08-19T12:32:19;100540.16;;;32.11;100.00
5574;BME280;2563;52.242;7.956;2022-08-19T12:34:44;100531.41;;;32.63;100.00
5574;BME280;2563;52.242;7.956;2022-08-19T12:37:12;100529.84;;;32.54;100.00
5574;BME280;2563;52.242;7.956;2022-08-19T12:39:41;100524.09;;;32.04;100.00
5574;BME280;2563;52.242;7.956;2022-08-19T12:42:11;100524.50;;;32.54;100.00
5574;BME280;2563;52.242;7.956;2022-08-19T12:44:39;100516.56;;;32.46;100.00
5574;BME280;2563;52.242;7.956;2022-08-19T12:47:06;100523.13;;;30.79;100.00
5574;BME280;2563;52.242;7.956;2022-08-19T12:49:32;100530.44;;;30.85;100.00
5574;BME280;2563;52.242;7.956;2022-08-19T12:52:00;100524.13;;;30.86;100.00
5574;BME280;2563;52.242;7.956;2022-08-19T12:54:26;100529.44;;;30.69;100.00
5574;BME280;2563;52.242;7.956;2022-08-19T12:56:51;100527.09;;;30.83;100.00
5574;BME280;2563;52.242;7.956;2022-08-19T12:59:17;100525.19;;;30.27;100.00
5574;BME280;2563;52.242;7.956;2022-08-19T13:01:44;100531.06;;;29.72;100.00
5574;BME280;2563;52.242;7.956;2022-08-19T13:04:10;100531.53;;;28.99;100.00
5574;BME280;2563;52.242;7.956;2022-08-19T13:06:36;100528.41;;;29.03;100.00
5574;BME280;2563;52.242;7.956;2022-08-19T13:09:03;100530.38;;;28.93;100.00
5574;BME280;2563;52.242;7.956;2022-08-19T13:11:28;100528.06;;;28.98;100.00
5574;BME280;2563;52.242;7.956;2022-08-19T13:13:58;100535.19;;;29.24;100.00